Fort Drum, Wheeler-Sack Army Airfield (KGTB)

NameWheeler-Sack Army Airfield
CityFort Drum
CountryUnited States
ICAOKGTB
IATA
Altitude64 m
CoordinatesGoogle Map
Live Air TrafficLiveATC.net
METARKGTB 172004Z AUTO 29007KT 10SM -DZ FEW043 06/05 A2984 RMK AO2 DZB04 SLP109 TSNO $
2018-10-17 20:04:00 Wind: West (290°) 3.6 m/s - Visibility: 16093.4 m - Weather: Light Drizzle - Temperature: 6 °C - Dew point: 5 °C - Humidity: 93.4% - Pressure: 1010.5 hPa
Statistics

The table below shows the detailed information of all flights to/from Fort Drum, Wheeler-Sack Army Airfield (KGTB).

Ident Aircraft Coming fromFrom Going toTo Owner nameOwnerSpotted durationDurationDate
N263SG - B744 - Atlas Air GTI8575 BOEING 747-400 (international, winglets) B744 Fort Drum, United States (KGTB) KGTB
564 km
Alexandria, United States (KAEX) KAEX
1681 km
Atlas Air Atlas Air 00:43:50 00:43:50 Sat, 13 Oct 2018 05:16:39 +0000 13/10/2018 5:16 am
Sat, 13 Oct 2018 06:00:29 +0000 13/10/2018 6:00 am
N322SG - B744 - Atlas Air GTI8575 BOEING 747-400 (international, winglets) B744 Fort Drum, United States (KGTB) KGTB
2015 km
Alexandria, United States (KAEX) KAEX
1038 km
Atlas Air Atlas Air - - Mon, 17 Sep 2018 06:17:30 +0000 17/9/2018 6:17 am
N322SG - B744 - Atlas Air GTI8575 BOEING 747-400 (international, winglets) B744 Fort Drum, United States (KGTB) KGTB
3808 km
Alexandria, United States (KAEX) KAEX
2430 km
Atlas Air Atlas Air - - Sun, 16 Sep 2018 23:12:09 +0000 16/9/2018 11:12 pm